Terminal Aerodrome Forecast
Issued by NWS

Home | Current Version | Previous Version | Text Only | Print | Product List | Glossary On
Versions: 1 2 3 4 5 6 7 8 9 10 11 12 13 14
930
FTUS43 KAPX 270527
TAFMBL
TAF
KMBL 270527Z 2706/2806 00000KT 1/2SM -SHRA FG OVC003
     FM271300 00000KT 1SM BR OVC003
     FM271500 00000KT P6SM OVC008
     FM271700 VRB03KT P6SM OVC012
     FM272000 34005KT P6SM OVC010
     FM280500 02005KT P6SM BKN020=

USA.gov is the U.S. government's official web portal to all federal, state and local government web resources and services.